Time;durP1;ratioP1;P1;durP2;ratioP2;P2;SDS_P1;SDS_P2;PMS_P1;PMS_P2;Temp;Humidity;BMP_temperature;BMP_pressure;BME280_temperature;BME280_humidity;BME280_pressure;Samples;Min_cycle;Max_cycle;Signal;HPM_P1;HPM_P2
2022/03/12 00:02:13;;;;;;;;;;;1.60;91.60;;;;;;5104427;28;19912;-42
2022/03/12 00:04:41;;;;;;;;;;;1.50;91.00;;;;;;5099670;28;20270;-41
2022/03/12 00:07:09;;;;;;;;;;;1.50;92.10;;;;;;5114108;28;20383;-41
2022/03/12 00:09:35;;;;;;;;;;;1.50;93.00;;;;;;5101847;28;19923;-41
2022/03/12 00:12:01;;;;;;;;;;;1.60;92.90;;;;;;5094359;28;19942;-41
2022/03/12 00:14:30;;;;;;;;;;;1.50;91.50;;;;;;5105301;28;19963;-41
2022/03/12 00:16:55;;;;;;;;;;;1.50;92.50;;;;;;5113187;28;19957;-41
2022/03/12 00:19:21;;;;;;;;;;;1.50;91.60;;;;;;5114006;28;19912;-41
2022/03/12 00:21:48;;;;;;;;;;;1.50;90.90;;;;;;5114246;28;19916;-41
2022/03/12 00:24:15;;;;;;;;;;;1.50;91.30;;;;;;5096948;28;19912;-42
2022/03/12 00:26:45;;;;;;;;;;;1.50;92.60;;;;;;5093105;28;19916;-41
2022/03/12 00:29:16;;;;;;;;;;;1.50;92.00;;;;;;5110448;28;19979;-46
2022/03/12 00:31:42;;;;;;;;;;;1.40;92.20;;;;;;5093866;28;19916;-41
2022/03/12 00:34:08;;;;;;;;;;;1.40;92.00;;;;;;5093656;28;19908;-42
2022/03/12 00:36:34;;;;;;;;;;;1.30;92.20;;;;;;5110154;28;19920;-42
2022/03/12 00:38:59;;;;;;;;;;;1.40;92.80;;;;;;5094213;28;19962;-42
2022/03/12 00:41:25;;;;;;;;;;;1.40;92.10;;;;;;5095298;28;19958;-41
2022/03/12 00:43:51;;;;;;;;;;;1.40;90.70;;;;;;5108914;28;19988;-42
2022/03/12 00:46:17;;;;;;;;;;;1.30;94.20;;;;;;5094028;28;20363;-44
2022/03/12 00:48:43;;;;;;;;;;;1.30;92.20;;;;;;5085974;28;19912;-42
2022/03/12 00:51:09;;;;;;;;;;;1.30;91.70;;;;;;5100556;28;20377;-42
2022/03/12 00:53:36;;;;;;;;;;;1.20;93.00;;;;;;5112187;28;19926;-42
2022/03/12 00:56:02;;;;;;;;;;;1.30;92.40;;;;;;5108245;28;19912;-42
2022/03/12 00:58:27;;;;;;;;;;;1.30;94.40;;;;;;5102396;28;19907;-42
2022/03/12 01:00:53;;;;;;;;;;;1.40;92.60;;;;;;5113565;28;19956;-42
2022/03/12 01:03:19;;;;;;;;;;;1.40;94.20;;;;;;5113405;28;20354;-42
2022/03/12 01:05:50;;;;;;;;;;;1.40;92.20;;;;;;5099088;28;19924;-42
2022/03/12 01:08:20;;;;;;;;;;;1.40;92.00;;;;;;5092459;28;20001;-42
2022/03/12 01:10:46;;;;;;;;;;;1.30;93.80;;;;;;5094947;28;19962;-42
2022/03/12 01:13:12;;;;;;;;;;;1.30;93.70;;;;;;5110655;28;20040;-42
2022/03/12 01:15:38;;;;;;;;;;;1.30;94.40;;;;;;5113260;28;20362;-42
2022/03/12 01:18:03;;;;;;;;;;;1.30;94.70;;;;;;5113146;28;19953;-42
2022/03/12 01:20:29;;;;;;;;;;;1.30;96.70;;;;;;5093721;28;19999;-42
2022/03/12 01:22:55;;;;;;;;;;;1.30;95.30;;;;;;5093401;28;19908;-42
2022/03/12 01:25:20;;;;;;;;;;;1.30;95.40;;;;;;5096386;28;19924;-42
2022/03/12 01:27:46;;;;;;;;;;;1.30;93.00;;;;;;5113170;28;19922;-41
2022/03/12 01:30:12;;;;;;;;;;;1.30;96.50;;;;;;5115680;28;19942;-40
2022/03/12 01:32:38;;;;;;;;;;;1.30;96.30;;;;;;5113264;28;19912;-42
2022/03/12 01:35:04;;;;;;;;;;;1.30;95.70;;;;;;5097659;28;19935;-42
2022/03/12 01:37:29;;;;;;;;;;;1.30;94.00;;;;;;5099833;28;19919;-42
2022/03/12 01:39:55;;;;;;;;;;;1.30;96.10;;;;;;5110954;28;19912;-42
2022/03/12 01:42:22;;;;;;;;;;;1.20;95.80;;;;;;5097544;28;19912;-42
2022/03/12 01:44:49;;;;;;;;;;;1.30;95.50;;;;;;5096980;28;19935;-42
2022/03/12 01:47:19;;;;;;;;;;;1.30;95.10;;;;;;5105562;28;19920;-42
2022/03/12 01:49:47;;;;;;;;;;;1.20;94.00;;;;;;5117118;28;20313;-42
2022/03/12 01:52:12;;;;;;;;;;;1.20;94.70;;;;;;5107517;28;19970;-42
2022/03/12 01:54:40;;;;;;;;;;;1.20;97.40;;;;;;5108658;28;20358;-41
2022/03/12 01:57:06;;;;;;;;;;;1.20;97.20;;;;;;5116600;28;20385;-42
2022/03/12 01:59:33;;;;;;;;;;;1.20;97.50;;;;;;5116688;28;19912;-42
2022/03/12 02:01:58;;;;;;;;;;;1.10;94.70;;;;;;5100389;28;19916;-43
2022/03/12 02:04:25;;;;;;;;;;;1.10;95.30;;;;;;5088966;28;20361;-42
2022/03/12 02:06:52;;;;;;;;;;;1.10;96.10;;;;;;5098058;28;20381;-42
2022/03/12 02:09:18;;;;;;;;;;;1.10;96.40;;;;;;5097707;28;20366;-42
2022/03/12 02:11:48;;;;;;;;;;;1.10;97.00;;;;;;5097005;28;19920;-42
2022/03/12 02:14:15;;;;;;;;;;;1.10;96.50;;;;;;5097888;28;19935;-42
2022/03/12 02:16:51;;;;;;;;;;;1.10;96.30;;;;;;5115412;28;20376;-42
2022/03/12 02:19:17;;;;;;;;;;;1.10;97.60;;;;;;5113273;28;20380;-42
2022/03/12 02:21:48;;;;;;;;;;;1.10;96.80;;;;;;5101514;28;20372;-42
2022/03/12 02:24:16;;;;;;;;;;;1.10;96.30;;;;;;5116228;28;19919;-42
2022/03/12 02:26:42;;;;;;;;;;;0.90;94.90;;;;;;5116067;28;20380;-40
2022/03/12 02:29:12;;;;;;;;;;;1.00;97.90;;;;;;5107659;28;20341;-41
2022/03/12 02:31:41;;;;;;;;;;;1.10;98.50;;;;;;5108524;28;19912;-41
2022/03/12 02:34:10;;;;;;;;;;;1.10;99.40;;;;;;5108740;28;19930;-43
2022/03/12 02:36:37;;;;;;;;;;;1.10;98.60;;;;;;5107673;28;19919;-41
2022/03/12 02:39:04;;;;;;;;;;;1.10;99.90;;;;;;5116271;28;19957;-41
2022/03/12 02:41:30;;;;;;;;;;;1.10;99.70;;;;;;5114643;28;19940;-41
2022/03/12 02:43:55;;;;;;;;;;;1.10;99.90;;;;;;5101783;28;20369;-41
2022/03/12 02:46:22;;;;;;;;;;;1.10;99.90;;;;;;5097254;28;20389;-42
2022/03/12 02:48:51;;;;;;;;;;;1.10;99.90;;;;;;5108625;28;19918;-42
2022/03/12 02:51:18;;;;;;;;;;;1.10;99.90;;;;;;5099210;28;20278;-44
2022/03/12 02:53:44;;;;;;;;;;;1.10;99.90;;;;;;5096167;28;19919;-42
2022/03/12 02:56:10;;;;;;;;;;;1.10;99.10;;;;;;5096060;28;19908;-39
2022/03/12 02:58:36;;;;;;;;;;;1.10;99.90;;;;;;5114186;28;19912;-41
2022/03/12 03:01:04;;;;;;;;;;;1.10;99.90;;;;;;5113721;28;20327;-41
2022/03/12 03:03:35;;;;;;;;;;;1.10;99.90;;;;;;5102332;28;19993;-41
2022/03/12 03:06:01;;;;;;;;;;;1.10;99.90;;;;;;5096265;28;20255;-42
2022/03/12 03:08:28;;;;;;;;;;;1.10;99.90;;;;;;5115730;28;19912;-42
2022/03/12 03:10:55;;;;;;;;;;;1.10;99.90;;;;;;5107102;28;19908;-42
2022/03/12 03:13:21;;;;;;;;;;;1.10;99.90;;;;;;5095586;28;19920;-42
2022/03/12 03:15:47;;;;;;;;;;;1.10;99.90;;;;;;5095307;28;19912;-42
2022/03/12 03:18:13;;;;;;;;;;;1.10;99.90;;;;;;5104524;28;19916;-41
2022/03/12 03:20:39;;;;;;;;;;;1.10;99.90;;;;;;5095253;28;19973;-42
2022/03/12 03:23:06;;;;;;;;;;;1.10;99.90;;;;;;5095629;28;20006;-42
2022/03/12 03:25:31;;;;;;;;;;;1.10;99.90;;;;;;5106070;28;19984;-43
2022/03/12 03:27:56;;;;;;;;;;;1.10;99.90;;;;;;5115256;28;19908;-42
2022/03/12 03:30:22;;;;;;;;;;;1.10;99.90;;;;;;5113445;28;20243;-42
2022/03/12 03:32:47;;;;;;;;;;;1.00;99.90;;;;;;5106860;28;19912;-41
2022/03/12 03:35:13;;;;;;;;;;;1.00;96.50;;;;;;5115386;28;19919;-41
2022/03/12 03:37:39;;;;;;;;;;;0.90;97.30;;;;;;5114745;28;19919;-41
2022/03/12 03:40:05;;;;;;;;;;;1.00;99.80;;;;;;5100390;28;19912;-41
2022/03/12 03:42:30;;;;;;;;;;;1.00;99.90;;;;;;5095105;28;20279;-42
2022/03/12 03:45:02;;;;;;;;;;;1.00;99.90;;;;;;5100210;28;20004;-42
2022/03/12 03:47:28;;;;;;;;;;;1.00;99.90;;;;;;5097261;28;19982;-42
2022/03/12 03:49:54;;;;;;;;;;;1.00;99.90;;;;;;5094716;28;19911;-42
2022/03/12 03:52:20;;;;;;;;;;;1.00;99.90;;;;;;5094503;28;19915;-42
2022/03/12 03:54:46;;;;;;;;;;;1.00;99.90;;;;;;5114433;28;19960;-42
2022/03/12 03:57:13;;;;;;;;;;;1.00;99.90;;;;;;5099744;28;19912;-41
2022/03/12 03:59:39;;;;;;;;;;;1.00;99.90;;;;;;5104580;28;20337;-42
2022/03/12 04:02:05;;;;;;;;;;;1.00;99.90;;;;;;5114345;28;19944;-42
2022/03/12 04:04:33;;;;;;;;;;;1.00;99.90;;;;;;5094692;28;19912;-42
2022/03/12 04:06:59;;;;;;;;;;;1.00;99.90;;;;;;5109940;28;20385;-41
2022/03/12 04:09:25;;;;;;;;;;;1.00;99.90;;;;;;5112016;28;19912;-42
2022/03/12 04:11:51;;;;;;;;;;;0.90;99.90;;;;;;5094301;28;19912;-41
2022/03/12 04:14:16;;;;;;;;;;;0.90;99.90;;;;;;5095552;28;19919;-42
2022/03/12 04:16:43;;;;;;;;;;;1.00;99.90;;;;;;5097561;28;19960;-42
2022/03/12 04:19:09;;;;;;;;;;;1.00;99.90;;;;;;5114032;28;19912;-42
2022/03/12 04:21:35;;;;;;;;;;;0.90;99.80;;;;;;5105141;28;19920;-42
2022/03/12 04:24:01;;;;;;;;;;;0.80;99.90;;;;;;5104957;28;19916;-46
2022/03/12 04:26:27;;;;;;;;;;;0.90;99.90;;;;;;5112362;28;19920;-41
2022/03/12 04:28:53;;;;;;;;;;;0.90;99.90;;;;;;5101017;28;20007;-41
2022/03/12 04:31:19;;;;;;;;;;;0.80;99.90;;;;;;5095448;28;20011;-41
2022/03/12 04:33:45;;;;;;;;;;;0.80;99.90;;;;;;5094539;28;19912;-41
2022/03/12 04:36:13;;;;;;;;;;;0.80;98.00;;;;;;5092907;28;19912;-41
2022/03/12 04:38:38;;;;;;;;;;;0.80;99.30;;;;;;5110491;28;20035;-42
2022/03/12 04:41:06;;;;;;;;;;;0.80;99.90;;;;;;5110707;28;19912;-41
2022/03/12 04:43:31;;;;;;;;;;;0.80;99.90;;;;;;5093732;28;19919;-41
2022/03/12 04:45:58;;;;;;;;;;;0.80;99.90;;;;;;5112156;28;19920;-41
2022/03/12 04:48:24;;;;;;;;;;;0.80;99.90;;;;;;5113859;28;19912;-40
2022/03/12 04:50:52;;;;;;;;;;;0.80;99.90;;;;;;5112686;28;19912;-40
2022/03/12 04:53:18;;;;;;;;;;;0.80;99.90;;;;;;5093641;28;19916;-41
2022/03/12 04:55:45;;;;;;;;;;;0.80;99.90;;;;;;5100233;28;19912;-42
2022/03/12 04:58:11;;;;;;;;;;;0.90;99.90;;;;;;5110526;28;19995;-41
2022/03/12 05:00:38;;;;;;;;;;;0.80;99.90;;;;;;5093738;28;19912;-41
2022/03/12 05:03:09;;;;;;;;;;;0.80;99.90;;;;;;5093916;28;19919;-42
2022/03/12 05:05:43;;;;;;;;;;;0.70;99.90;;;;;;5096362;28;19950;-41
2022/03/12 05:08:11;;;;;;;;;;;0.80;99.90;;;;;;5113086;28;20306;-42
2022/03/12 05:10:37;;;;;;;;;;;0.70;99.90;;;;;;5095410;28;19957;-42
2022/03/12 05:13:03;;;;;;;;;;;0.70;99.90;;;;;;5106229;28;19923;-42
2022/03/12 05:15:38;;;;;;;;;;;0.70;99.90;;;;;;5092207;28;19938;-42
2022/03/12 05:18:07;;;;;;;;;;;0.70;99.90;;;;;;5092443;28;20254;-42
2022/03/12 05:20:33;;;;;;;;;;;0.60;99.90;;;;;;5102625;28;19916;-42
2022/03/12 05:22:58;;;;;;;;;;;0.70;99.90;;;;;;5113824;28;19938;-41
2022/03/12 05:25:25;;;;;;;;;;;0.80;99.90;;;;;;5095798;28;19912;-41
2022/03/12 05:27:52;;;;;;;;;;;0.80;99.90;;;;;;5106094;28;19912;-41
2022/03/12 05:30:18;;;;;;;;;;;0.70;99.90;;;;;;5111827;28;19974;-42
2022/03/12 05:32:43;;;;;;;;;;;0.70;99.90;;;;;;5112706;28;19947;-42
2022/03/12 05:35:09;;;;;;;;;;;0.80;99.90;;;;;;5098832;28;20358;-41
2022/03/12 05:37:36;;;;;;;;;;;0.80;99.90;;;;;;5093994;28;19919;-42
2022/03/12 05:40:07;;;;;;;;;;;0.80;99.90;;;;;;5113015;28;19956;-42
2022/03/12 05:42:34;;;;;;;;;;;0.80;99.90;;;;;;5095668;28;20420;-42
2022/03/12 05:45:09;;;;;;;;;;;0.80;99.90;;;;;;5092029;28;19946;-42
2022/03/12 05:47:38;;;;;;;;;;;0.80;99.90;;;;;;5093207;28;19920;-42
2022/03/12 05:50:04;;;;;;;;;;;0.80;99.90;;;;;;5112764;28;20490;-42
2022/03/12 05:52:30;;;;;;;;;;;0.80;99.90;;;;;;5104815;28;19952;-43
2022/03/12 05:54:55;;;;;;;;;;;0.90;99.90;;;;;;5096149;28;19911;-42
2022/03/12 05:57:21;;;;;;;;;;;0.90;99.90;;;;;;5113015;28;20350;-41
2022/03/12 05:59:48;;;;;;;;;;;1.00;99.90;;;;;;5111433;28;20376;-42
2022/03/12 06:02:13;;;;;;;;;;;1.00;99.90;;;;;;5103324;28;19912;-41
2022/03/12 06:04:40;;;;;;;;;;;1.00;99.90;;;;;;5093179;28;20346;-41
2022/03/12 06:07:06;;;;;;;;;;;1.10;99.90;;;;;;5100553;28;19920;-41
2022/03/12 06:09:31;;;;;;;;;;;1.10;99.90;;;;;;5101798;28;19918;-41
2022/03/12 06:11:57;;;;;;;;;;;1.00;99.90;;;;;;5092827;28;20010;-41
2022/03/12 06:14:23;;;;;;;;;;;1.20;99.90;;;;;;5092935;28;19922;-41
2022/03/12 06:16:49;;;;;;;;;;;1.20;99.90;;;;;;5108784;28;19935;-41
2022/03/12 06:19:15;;;;;;;;;;;1.20;99.90;;;;;;5116295;28;20346;-42
2022/03/12 06:21:41;;;;;;;;;;;1.20;99.90;;;;;;5105025;28;20395;-42
2022/03/12 06:24:07;;;;;;;;;;;1.30;99.90;;;;;;5110386;28;19911;-42
2022/03/12 06:26:35;;;;;;;;;;;1.30;99.90;;;;;;5114440;28;20277;-43
2022/03/12 06:29:01;;;;;;;;;;;1.40;99.90;;;;;;5115936;28;19965;-42
2022/03/12 06:31:27;;;;;;;;;;;1.40;99.90;;;;;;5098897;28;19999;-42
2022/03/12 06:33:54;;;;;;;;;;;1.60;99.90;;;;;;5096230;28;19952;-42
2022/03/12 06:36:21;;;;;;;;;;;1.60;99.90;;;;;;5111708;28;19912;-42
2022/03/12 06:38:47;;;;;;;;;;;1.70;99.90;;;;;;5096461;28;19916;-42
2022/03/12 06:41:13;;;;;;;;;;;1.70;99.90;;;;;;5095844;28;19912;-41
2022/03/12 06:43:42;;;;;;;;;;;1.80;99.90;;;;;;5097561;28;19962;-42
2022/03/12 06:46:09;;;;;;;;;;;1.80;99.90;;;;;;5115756;28;20266;-42
2022/03/12 06:48:35;;;;;;;;;;;1.90;99.90;;;;;;5113397;28;20326;-42
2022/03/12 06:51:01;;;;;;;;;;;2.10;99.90;;;;;;5099976;28;19912;-43
2022/03/12 06:53:27;;;;;;;;;;;2.00;99.60;;;;;;5115565;28;19996;-42
2022/03/12 06:55:53;;;;;;;;;;;2.20;99.90;;;;;;5087685;28;19916;-41
2022/03/12 06:58:19;;;;;;;;;;;2.10;96.40;;;;;;5102172;28;19912;-41
2022/03/12 07:00:44;;;;;;;;;;;2.10;95.90;;;;;;5114976;28;19912;-42
2022/03/12 07:03:10;;;;;;;;;;;2.20;95.90;;;;;;5114569;28;19946;-42
2022/03/12 07:05:35;;;;;;;;;;;2.10;95.50;;;;;;5107835;28;19920;-41
2022/03/12 07:08:01;;;;;;;;;;;2.10;95.60;;;;;;5114135;28;19934;-43
2022/03/12 07:10:27;;;;;;;;;;;2.40;99.70;;;;;;5115459;28;19911;-41
2022/03/12 07:12:53;;;;;;;;;;;2.50;99.40;;;;;;5100328;28;19916;-41
2022/03/12 07:15:19;;;;;;;;;;;2.60;99.90;;;;;;5095400;28;19912;-42
2022/03/12 07:17:45;;;;;;;;;;;2.90;99.90;;;;;;5098636;28;19934;-42
2022/03/12 07:20:11;;;;;;;;;;;3.00;99.90;;;;;;5097152;28;19983;-44
2022/03/12 07:22:37;;;;;;;;;;;3.10;99.90;;;;;;5093864;28;19912;-41
2022/03/12 07:25:03;;;;;;;;;;;3.30;99.90;;;;;;5094831;28;19916;-42
2022/03/12 07:27:28;;;;;;;;;;;3.50;99.90;;;;;;5113215;28;19973;-42
2022/03/12 07:29:54;;;;;;;;;;;3.60;99.90;;;;;;5115081;28;19920;-41
2022/03/12 07:32:20;;;;;;;;;;;3.70;99.70;;;;;;5106241;28;19944;-42
2022/03/12 07:34:47;;;;;;;;;;;3.80;99.90;;;;;;5114426;28;19916;-42
2022/03/12 07:37:12;;;;;;;;;;;3.90;99.90;;;;;;5114297;28;19922;-43
2022/03/12 07:39:38;;;;;;;;;;;3.90;99.60;;;;;;5111436;28;19912;-43
2022/03/12 07:42:04;;;;;;;;;;;4.00;99.90;;;;;;5097065;28;19912;-42
2022/03/12 07:44:30;;;;;;;;;;;4.20;99.90;;;;;;5094830;28;19918;-42
2022/03/12 07:46:55;;;;;;;;;;;4.30;99.90;;;;;;5104456;28;19919;-42
2022/03/12 07:49:21;;;;;;;;;;;4.30;99.50;;;;;;5100382;28;19912;-42
2022/03/12 07:51:46;;;;;;;;;;;4.50;99.90;;;;;;5094737;28;19962;-42
2022/03/12 07:54:14;;;;;;;;;;;4.80;99.90;;;;;;5094323;28;19989;-43
2022/03/12 07:56:40;;;;;;;;;;;4.80;99.30;;;;;;5110188;28;19912;-42
2022/03/12 07:59:06;;;;;;;;;;;5.10;99.90;;;;;;5126408;27;19934;-44
2022/03/12 08:01:31;;;;;;;;;;;5.00;98.90;;;;;;5104046;28;20400;-42
2022/03/12 08:03:58;;;;;;;;;;;5.20;99.90;;;;;;5113787;28;19912;-41
2022/03/12 08:06:24;;;;;;;;;;;5.30;99.90;;;;;;5104293;28;20323;-42
2022/03/12 08:08:50;;;;;;;;;;;5.30;99.90;;;;;;5122195;27;19912;-43
2022/03/12 08:11:25;;;;;;;;;;;5.60;99.90;;;;;;5106025;28;19912;-42
2022/03/12 08:14:08;;;;;;;;;;;5.70;99.50;;;;;;5112643;28;20358;-42
2022/03/12 08:16:35;;;;;;;;;;;5.90;97.00;;;;;;5105212;28;19918;-44
2022/03/12 08:19:05;;;;;;;;;;;6.00;96.60;;;;;;5099141;28;19926;-43
2022/03/12 08:21:30;;;;;;;;;;;6.10;96.00;;;;;;5094121;28;19912;-42
2022/03/12 08:23:56;;;;;;;;;;;6.00;98.80;;;;;;5106010;28;19964;-42
2022/03/12 08:26:22;;;;;;;;;;;6.30;98.90;;;;;;5113697;28;19927;-42
2022/03/12 08:28:48;;;;;;;;;;;6.20;96.70;;;;;;5109031;28;19927;-43
2022/03/12 08:31:13;;;;;;;;;;;6.40;99.30;;;;;;5108132;28;19912;-43
2022/03/12 08:33:39;;;;;;;;;;;6.60;99.90;;;;;;5111817;28;19919;-43
2022/03/12 08:36:06;;;;;;;;;;;6.90;99.00;;;;;;5113374;28;20281;-42
2022/03/12 08:38:35;;;;;;;;;;;7.10;98.80;;;;;;5094914;28;19912;-43
2022/03/12 08:41:02;;;;;;;;;;;7.20;97.50;;;;;;5092416;28;20377;-42
2022/03/12 08:43:27;;;;;;;;;;;7.30;97.20;;;;;;5100815;28;20003;-44
2022/03/12 08:45:53;;;;;;;;;;;7.50;97.40;;;;;;5094109;28;20349;-44
2022/03/12 08:48:18;;;;;;;;;;;7.60;96.20;;;;;;5092392;28;20274;-43
2022/03/12 08:50:45;;;;;;;;;;;7.90;96.90;;;;;;5094761;28;19912;-41
2022/03/12 08:53:11;;;;;;;;;;;7.80;95.60;;;;;;5113127;28;19916;-42
2022/03/12 08:55:37;;;;;;;;;;;7.60;94.60;;;;;;5104850;28;19957;-43
2022/03/12 08:58:02;;;;;;;;;;;7.70;94.10;;;;;;5097617;28;19916;-44
2022/03/12 09:00:28;;;;;;;;;;;7.60;92.90;;;;;;5093468;28;19912;-43
2022/03/12 09:02:54;;;;;;;;;;;7.20;93.30;;;;;;5093298;28;20019;-42
2022/03/12 09:05:19;;;;;;;;;;;7.50;94.70;;;;;;5102320;28;19919;-43
2022/03/12 09:07:45;;;;;;;;;;;7.80;95.20;;;;;;5113154;28;20253;-42
2022/03/12 09:10:11;;;;;;;;;;;7.90;93.70;;;;;;5105230;28;20302;-42
2022/03/12 09:12:37;;;;;;;;;;;8.00;93.50;;;;;;5109809;28;20255;-43
2022/03/12 09:15:04;;;;;;;;;;;7.70;92.50;;;;;;5107424;28;19924;-42
2022/03/12 09:17:30;;;;;;;;;;;7.90;96.80;;;;;;5092711;28;20289;-43
2022/03/12 09:19:55;;;;;;;;;;;8.30;92.60;;;;;;5092864;28;19927;-41
2022/03/12 09:22:21;;;;;;;;;;;7.70;90.60;;;;;;5102950;28;19911;-42
2022/03/12 09:24:46;;;;;;;;;;;8.00;95.10;;;;;;5096198;28;20359;-45
2022/03/12 09:27:12;;;;;;;;;;;8.20;92.30;;;;;;5112264;28;19923;-43
2022/03/12 09:29:38;;;;;;;;;;;8.10;91.20;;;;;;5106499;28;19920;-42
2022/03/12 09:32:04;;;;;;;;;;;8.20;92.70;;;;;;5094869;28;19942;-41
2022/03/12 09:34:30;;;;;;;;;;;8.10;91.40;;;;;;5112259;28;19918;-43
2022/03/12 09:36:56;;;;;;;;;;;8.30;91.60;;;;;;5103047;28;19912;-42
2022/03/12 09:39:21;;;;;;;;;;;8.50;94.70;;;;;;5096444;28;19995;-43
2022/03/12 09:41:47;;;;;;;;;;;8.40;91.30;;;;;;5109256;28;19958;-44
2022/03/12 09:44:13;;;;;;;;;;;8.30;90.10;;;;;;5107071;28;19915;-42
2022/03/12 09:46:38;;;;;;;;;;;8.30;92.10;;;;;;5111914;28;20387;-42
2022/03/12 09:49:04;;;;;;;;;;;8.90;94.60;;;;;;5107287;28;19912;-43
2022/03/12 09:51:31;;;;;;;;;;;8.90;91.50;;;;;;5095935;28;19912;-41
2022/03/12 09:54:00;;;;;;;;;;;8.80;90.50;;;;;;5097274;28;19912;-43
2022/03/12 09:56:26;;;;;;;;;;;9.30;91.70;;;;;;5102444;28;20351;-42
2022/03/12 09:58:52;;;;;;;;;;;9.60;91.50;;;;;;5114510;28;19919;-44
2022/03/12 10:01:17;;;;;;;;;;;9.80;90.90;;;;;;5094396;28;19912;-44
2022/03/12 10:03:43;;;;;;;;;;;9.70;87.50;;;;;;5109132;28;19912;-42
2022/03/12 10:06:10;;;;;;;;;;;9.60;87.10;;;;;;5100733;28;19928;-42
2022/03/12 10:08:36;;;;;;;;;;;9.40;86.70;;;;;;5112844;28;20008;-45
2022/03/12 10:11:01;;;;;;;;;;;9.50;86.10;;;;;;5115341;28;20478;-42
2022/03/12 10:13:27;;;;;;;;;;;9.60;83.50;;;;;;5114648;28;19968;-45
2022/03/12 10:15:52;;;;;;;;;;;9.80;83.80;;;;;;5112586;28;19922;-43
2022/03/12 10:18:20;;;;;;;;;;;9.50;83.20;;;;;;5114535;28;19918;-43
2022/03/12 10:20:46;;;;;;;;;;;9.40;84.50;;;;;;5113973;28;19916;-43
2022/03/12 10:23:11;;;;;;;;;;;9.20;82.10;;;;;;5115751;28;19912;-41
2022/03/12 10:25:38;;;;;;;;;;;9.30;85.60;;;;;;5113704;28;20010;-43
2022/03/12 10:28:04;;;;;;;;;;;9.30;84.40;;;;;;5111134;28;19919;-42
2022/03/12 10:30:29;;;;;;;;;;;9.40;81.40;;;;;;5096063;28;19954;-42
2022/03/12 10:32:55;;;;;;;;;;;9.30;82.00;;;;;;5095679;28;19912;-42
2022/03/12 10:35:21;;;;;;;;;;;9.80;83.70;;;;;;5099646;28;20003;-44
2022/03/12 10:37:48;;;;;;;;;;;9.90;83.00;;;;;;5115343;28;20023;-42
2022/03/12 10:40:20;;;;;;;;;;;9.70;81.50;;;;;;5115928;28;20010;-41
2022/03/12 10:42:47;;;;;;;;;;;9.60;81.10;;;;;;5105320;28;20359;-42
2022/03/12 10:45:14;;;;;;;;;;;9.60;83.10;;;;;;5095266;28;20431;-42
2022/03/12 10:47:41;;;;;;;;;;;9.30;80.70;;;;;;5094886;28;19927;-42
2022/03/12 10:50:09;;;;;;;;;;;9.50;82.00;;;;;;5105963;28;19998;-42
2022/03/12 10:52:38;;;;;;;;;;;9.60;84.40;;;;;;5113583;28;20270;-42
2022/03/12 10:55:11;;;;;;;;;;;9.50;82.20;;;;;;5112551;28;19912;-43
2022/03/12 10:57:37;;;;;;;;;;;9.30;81.30;;;;;;5092479;28;19912;-44
2022/03/12 11:00:09;;;;;;;;;;;9.50;81.80;;;;;;5102355;28;20385;-43
2022/03/12 11:02:34;;;;;;;;;;;10.00;82.20;;;;;;5092500;28;19912;-44
2022/03/12 11:05:04;;;;;;;;;;;10.10;82.40;;;;;;5102056;28;19964;-45
2022/03/12 11:07:30;;;;;;;;;;;9.90;80.20;;;;;;5114530;28;20341;-44
2022/03/12 11:09:56;;;;;;;;;;;10.00;81.20;;;;;;5110015;28;19912;-43
2022/03/12 11:12:35;;;;;;;;;;;9.90;81.10;;;;;;5094936;28;19973;-45
2022/03/12 11:15:10;;;;;;;;;;;10.50;82.70;;;;;;5088697;28;19962;-43
2022/03/12 11:17:44;;;;;;;;;;;10.50;79.90;;;;;;5105850;28;19918;-44
2022/03/12 11:20:18;;;;;;;;;;;10.30;82.80;;;;;;5094495;28;19999;-44
2022/03/12 11:22:51;;;;;;;;;;;10.10;81.10;;;;;;5094818;28;19920;-43
2022/03/12 11:25:20;;;;;;;;;;;9.90;80.30;;;;;;5114419;28;19912;-43
2022/03/12 11:27:49;;;;;;;;;;;10.00;83.10;;;;;;5114071;28;19924;-43
2022/03/12 11:30:18;;;;;;;;;;;10.20;79.70;;;;;;5110618;28;19946;-43
2022/03/12 11:32:45;;;;;;;;;;;10.20;81.60;;;;;;5109951;28;19912;-42
2022/03/12 11:35:15;;;;;;;;;;;10.90;83.90;;;;;;5114071;28;19912;-41
2022/03/12 11:37:42;;;;;;;;;;;11.10;78.60;;;;;;5107406;28;19912;-43
2022/03/12 11:40:10;;;;;;;;;;;10.20;78.60;;;;;;5094267;28;19978;-43
2022/03/12 11:42:36;;;;;;;;;;;10.50;82.70;;;;;;5092774;28;20011;-44
2022/03/12 11:45:04;;;;;;;;;;;10.90;79.70;;;;;;5102320;28;20035;-45
2022/03/12 11:47:31;;;;;;;;;;;11.10;86.80;;;;;;5093729;28;20305;-44
2022/03/12 11:49:57;;;;;;;;;;;11.00;79.50;;;;;;5092777;28;19912;-44
2022/03/12 11:52:23;;;;;;;;;;;11.00;79.50;;;;;;5097476;28;20291;-43
2022/03/12 11:54:54;;;;;;;;;;;11.20;77.60;;;;;;5106937;28;19961;-43
2022/03/12 11:57:34;;;;;;;;;;;11.10;81.30;;;;;;5093659;28;19912;-43
2022/03/12 12:00:01;;;;;;;;;;;11.20;77.80;;;;;;5101736;28;19912;-43
2022/03/12 12:02:29;;;;;;;;;;;11.30;76.70;;;;;;5093441;28;20440;-45
2022/03/12 12:04:56;;;;;;;;;;;11.50;81.30;;;;;;5093523;28;19920;-43
2022/03/12 12:07:23;;;;;;;;;;;11.00;77.00;;;;;;5111701;28;19919;-45
2022/03/12 12:09:49;;;;;;;;;;;10.80;77.60;;;;;;5113085;28;19915;-44
2022/03/12 12:12:15;;;;;;;;;;;10.80;77.80;;;;;;5112956;28;20014;-44
2022/03/12 12:14:41;;;;;;;;;;;11.00;78.20;;;;;;5103532;28;20338;-43
2022/03/12 12:17:07;;;;;;;;;;;10.90;77.10;;;;;;5113444;28;19919;-43
2022/03/12 12:19:34;;;;;;;;;;;11.20;78.30;;;;;;5111079;28;19916;-44
2022/03/12 12:22:00;;;;;;;;;;;11.30;76.90;;;;;;5093699;28;20096;-43
2022/03/12 12:24:26;;;;;;;;;;;11.30;76.70;;;;;;5093549;28;19912;-43
2022/03/12 12:27:00;;;;;;;;;;;11.50;76.10;;;;;;5097552;28;19926;-43
2022/03/12 12:29:40;;;;;;;;;;;11.80;78.20;;;;;;5096221;28;19947;-44
2022/03/12 12:32:06;;;;;;;;;;;11.90;76.00;;;;;;5093487;28;19988;-44
2022/03/12 12:34:34;;;;;;;;;;;12.10;75.10;;;;;;5101959;28;20045;-45
2022/03/12 12:37:00;;;;;;;;;;;12.20;74.90;;;;;;5094316;28;19912;-42
2022/03/12 12:39:26;;;;;;;;;;;12.20;74.00;;;;;;5093285;28;19936;-42
2022/03/12 12:42:01;;;;;;;;;;;12.30;75.10;;;;;;5094424;28;19966;-43
2022/03/12 12:44:54;;;;;;;;;;;12.00;73.40;;;;;;5093220;28;19991;-42
2022/03/12 12:47:20;;;;;;;;;;;11.90;74.60;;;;;;5091860;28;19920;-46
2022/03/12 12:49:52;;;;;;;;;;;12.00;75.00;;;;;;5104652;28;19916;-43
2022/03/12 12:52:18;;;;;;;;;;;12.10;75.00;;;;;;5113422;28;19954;-43
2022/03/12 12:54:46;;;;;;;;;;;12.30;75.20;;;;;;5112375;28;19912;-44
2022/03/12 12:57:13;;;;;;;;;;;12.40;73.90;;;;;;5097708;28;19912;-44
2022/03/12 12:59:41;;;;;;;;;;;12.60;73.40;;;;;;5093877;28;19927;-46
2022/03/12 13:02:06;;;;;;;;;;;12.70;76.80;;;;;;5091789;28;19912;-43
2022/03/12 13:04:48;;;;;;;;;;;12.50;72.20;;;;;;5111680;28;20274;-44
2022/03/12 13:07:19;;;;;;;;;;;12.60;73.70;;;;;;5112072;28;19955;-44
2022/03/12 13:09:44;;;;;;;;;;;12.60;73.00;;;;;;5093997;28;19998;-43
2022/03/12 13:12:12;;;;;;;;;;;12.60;72.30;;;;;;5091651;28;19954;-42
2022/03/12 13:14:43;;;;;;;;;;;12.20;73.40;;;;;;5092644;28;20234;-45
2022/03/12 13:17:11;;;;;;;;;;;12.30;72.80;;;;;;5099481;28;19991;-43
2022/03/12 13:19:43;;;;;;;;;;;12.30;72.60;;;;;;5112308;28;19920;-45
2022/03/12 13:22:09;;;;;;;;;;;12.30;72.60;;;;;;5111441;28;19999;-43
2022/03/12 13:24:58;;;;;;;;;;;12.50;73.00;;;;;;5102114;28;20004;-46
2022/03/12 13:27:29;;;;;;;;;;;12.20;72.40;;;;;;5096794;28;19927;-44
2022/03/12 13:30:09;;;;;;;;;;;12.40;73.90;;;;;;5096210;28;20267;-44
2022/03/12 13:32:35;;;;;;;;;;;12.30;72.20;;;;;;5113573;28;20332;-44
2022/03/12 13:35:01;;;;;;;;;;;12.40;72.10;;;;;;5116665;28;20007;-44
2022/03/12 13:37:27;;;;;;;;;;;12.60;72.50;;;;;;5115307;28;19994;-44
2022/03/12 13:40:09;;;;;;;;;;;13.00;71.30;;;;;;5096391;28;19951;-43
2022/03/12 13:42:55;;;;;;;;;;;12.70;71.20;;;;;;5096917;28;19912;-45
2022/03/12 13:45:21;;;;;;;;;;;12.70;71.30;;;;;;5104174;28;19934;-46
2022/03/12 13:47:59;;;;;;;;;;;13.00;71.80;;;;;;5116469;28;20239;-43
2022/03/12 13:50:26;;;;;;;;;;;13.00;71.00;;;;;;5116014;28;20282;-44
2022/03/12 13:52:54;;;;;;;;;;;12.90;70.70;;;;;;5104460;28;19912;-43
2022/03/12 13:55:19;;;;;;;;;;;12.70;70.70;;;;;;5112153;28;19912;-45
2022/03/12 13:57:47;;;;;;;;;;;12.60;70.80;;;;;;5108024;28;19973;-44
2022/03/12 14:00:16;;;;;;;;;;;12.90;68.60;;;;;;5111116;28;19912;-44
2022/03/12 14:02:59;;;;;;;;;;;13.10;69.50;;;;;;5115940;28;19965;-46
2022/03/12 14:05:25;;;;;;;;;;;12.70;70.70;;;;;;5114223;28;20343;-42
2022/03/12 14:07:51;;;;;;;;;;;12.50;70.30;;;;;;5115506;28;20008;-45
2022/03/12 14:10:17;;;;;;;;;;;12.50;71.20;;;;;;5116063;28;19911;-44
2022/03/12 14:12:44;;;;;;;;;;;12.60;70.60;;;;;;5107889;28;20443;-43
2022/03/12 14:15:11;;;;;;;;;;;12.70;70.60;;;;;;5096988;28;19946;-46
2022/03/12 14:17:37;;;;;;;;;;;12.70;70.20;;;;;;5095964;28;20419;-42
2022/03/12 14:20:04;;;;;;;;;;;12.50;70.40;;;;;;5096044;28;20010;-44
2022/03/12 14:22:30;;;;;;;;;;;12.20;70.60;;;;;;5105691;28;19912;-43
2022/03/12 14:25:05;;;;;;;;;;;12.20;70.30;;;;;;5116356;28;19911;-44
2022/03/12 14:27:30;;;;;;;;;;;12.10;70.60;;;;;;5115655;28;19920;-43